createdAt,value
2023-05-30T00:00:25.795Z,72.75
2023-05-30T00:01:25.792Z,71.61
2023-05-30T00:02:25.906Z,71.89
2023-05-30T00:03:25.881Z,73.14
2023-05-30T00:04:25.801Z,73.04
2023-05-30T00:05:25.789Z,73.52
2023-05-30T00:06:25.754Z,73.14
2023-05-30T00:07:25.731Z,73.14
2023-05-30T00:08:25.815Z,73.48
2023-05-30T00:09:25.732Z,73.29
2023-05-30T00:10:25.760Z,72.37
2023-05-30T00:11:25.717Z,72.14
2023-05-30T00:12:25.726Z,72.81
2023-05-30T00:13:25.713Z,73.29
2023-05-30T00:14:25.696Z,73.10
2023-05-30T00:15:25.727Z,72.91
2023-05-30T00:16:25.917Z,72.72
2023-05-30T00:17:25.724Z,72.72
2023-05-30T00:18:25.677Z,73.77
2023-05-30T00:19:25.675Z,73.67
2023-05-30T00:20:25.650Z,73.77
2023-05-30T00:21:25.650Z,73.19
2023-05-30T00:22:25.641Z,74.05
2023-05-30T00:23:25.667Z,74.53
2023-05-30T00:24:25.581Z,74.63
2023-05-30T00:25:25.606Z,75.20
2023-05-30T00:26:25.612Z,75.59
2023-05-30T00:27:25.596Z,76.25
2023-05-30T00:28:25.624Z,76.25
2023-05-30T00:29:25.568Z,76.06
2023-05-30T00:30:25.593Z,75.87
2023-05-30T00:31:25.570Z,76.73
2023-05-30T00:32:25.567Z,77.11
2023-05-30T00:33:25.509Z,77.50
2023-05-30T00:34:25.546Z,78.26
2023-05-30T00:35:25.546Z,77.87
2023-05-30T00:36:25.525Z,77.50
2023-05-30T00:37:25.511Z,77.97
2023-05-30T00:38:25.531Z,78.26
2023-05-30T00:39:25.493Z,78.74
2023-05-30T00:40:25.513Z,78.45
2023-05-30T00:41:25.475Z,78.36
2023-05-30T00:42:25.469Z,78.26
2023-05-30T00:43:25.460Z,78.45
2023-05-30T00:44:25.474Z,78.36
2023-05-30T00:45:25.434Z,77.21
2023-05-30T00:46:25.496Z,77.59
2023-05-30T00:47:25.441Z,78.83
2023-05-30T00:48:25.424Z,80.17
2023-05-30T00:49:25.445Z,79.75
2023-05-30T00:50:25.523Z,80.55
2023-05-30T00:51:25.414Z,81.22
2023-05-30T00:52:25.374Z,81.70
2023-05-30T00:53:25.352Z,81.03
2023-05-30T00:54:25.368Z,80.90
2023-05-30T00:55:25.377Z,80.84
2023-05-30T00:56:25.342Z,81.09
2023-05-30T00:57:25.371Z,81.89
2023-05-30T00:58:25.358Z,81.13
2023-05-30T00:59:25.314Z,82.28
2023-05-30T01:00:25.320Z,82.08
2023-05-30T01:01:25.434Z,81.95
2023-05-30T01:02:25.389Z,81.51
2023-05-30T01:03:25.500Z,82.14
2023-05-30T01:04:25.338Z,81.47
2023-05-30T01:05:25.298Z,82.52
2023-05-30T01:06:25.304Z,82.61
2023-05-30T01:07:25.282Z,83.00
2023-05-30T01:08:25.264Z,82.42
2023-05-30T01:09:25.296Z,82.90
2023-05-30T01:10:25.254Z,83.28
2023-05-30T01:11:25.263Z,83.18
2023-05-30T01:12:25.429Z,84.05
2023-05-30T01:13:25.221Z,83.47
2023-05-30T01:14:25.239Z,83.09
2023-05-30T01:15:25.199Z,82.81
2023-05-30T01:16:25.230Z,83.38
2023-05-30T01:17:25.227Z,83.76
2023-05-30T01:18:25.148Z,83.57
2023-05-30T01:19:25.195Z,83.38
2023-05-30T01:20:25.183Z,83.86
2023-05-30T01:21:25.178Z,82.90
2023-05-30T01:22:58.393Z,82.42
2023-05-30T01:23:25.107Z,83.24
2023-05-30T01:24:25.109Z,83.14
2023-05-30T01:25:25.131Z,83.72
2023-05-30T01:26:25.108Z,82.57
2023-05-30T01:27:25.142Z,82.95
2023-05-30T01:28:25.097Z,82.95
2023-05-30T01:29:25.107Z,82.48
2023-05-30T01:30:25.076Z,83.05
2023-05-30T01:31:25.124Z,83.91
2023-05-30T01:32:25.096Z,83.72
2023-05-30T01:33:25.026Z,84.20
2023-05-30T01:34:25.101Z,84.96
2023-05-30T01:35:25.048Z,84.58
2023-05-30T01:36:25.059Z,84.39
2023-05-30T01:37:25.036Z,84.58
2023-05-30T01:38:25.068Z,84.48
2023-05-30T01:39:25.021Z,84.29
2023-05-30T01:40:25.037Z,84.20
2023-05-30T01:41:24.980Z,82.67
2023-05-30T01:42:25.178Z,83.14
2023-05-30T01:43:24.949Z,83.43
2023-05-30T01:44:24.968Z,83.81
2023-05-30T01:45:24.963Z,83.24
2023-05-30T01:46:25.083Z,82.67
2023-05-30T01:47:24.954Z,82.57
2023-05-30T01:48:24.936Z,82.48
2023-05-30T01:49:24.944Z,82.95
2023-05-30T01:50:24.896Z,82.95
2023-05-30T01:51:25.023Z,82.48
2023-05-30T01:52:24.900Z,83.48
2023-05-30T01:53:24.916Z,83.48
2023-05-30T01:54:24.930Z,84.25
2023-05-30T01:55:24.902Z,84.92
2023-05-30T01:56:24.854Z,83.96
2023-05-30T01:57:24.887Z,84.53
2023-05-30T01:58:24.851Z,85.49
2023-05-30T01:59:24.819Z,84.44
2023-05-30T02:00:24.833Z,84.34
2023-05-30T02:01:24.868Z,84.72
2023-05-30T02:02:24.813Z,84.92
2023-05-30T02:03:24.828Z,85.93
2023-05-30T02:04:24.794Z,86.16
2023-05-30T02:05:24.813Z,86.54
2023-05-30T02:06:24.798Z,86.54
2023-05-30T02:07:24.766Z,86.02
2023-05-30T02:08:24.777Z,85.93
2023-05-30T02:09:24.756Z,86.11
2023-05-30T02:10:24.754Z,86.21
2023-05-30T02:11:24.742Z,86.11
2023-05-30T02:12:24.723Z,86.40
2023-05-30T02:13:24.706Z,85.83
2023-05-30T02:14:24.687Z,86.49
2023-05-30T02:15:24.680Z,86.88
2023-05-30T02:16:24.713Z,86.69
2023-05-30T02:17:24.722Z,88.02
2023-05-30T02:18:24.661Z,87.16
2023-05-30T02:19:24.651Z,87.83
2023-05-30T02:20:24.694Z,88.21
2023-05-30T02:21:24.646Z,88.02
2023-05-30T02:22:24.654Z,88.40
2023-05-30T02:23:24.615Z,88.50
2023-05-30T02:24:25.991Z,88.78
2023-05-30T02:25:24.588Z,88.40
2023-05-30T02:26:24.633Z,89.26
2023-05-30T02:27:24.581Z,88.69
2023-05-30T02:28:24.617Z,88.40
2023-05-30T02:29:24.581Z,88.40
2023-05-30T02:30:24.552Z,88.64
2023-05-30T02:31:24.532Z,88.64
2023-05-30T02:32:24.741Z,87.98
2023-05-30T02:33:24.539Z,88.17
2023-05-30T02:34:24.514Z,88.84
2023-05-30T02:35:24.492Z,89.40
2023-05-30T02:36:24.504Z,89.50
2023-05-30T02:37:24.496Z,89.12
2023-05-30T02:38:24.518Z,89.50
2023-05-30T02:39:24.471Z,89.40
2023-05-30T02:40:24.449Z,89.50
2023-05-30T02:41:24.448Z,89.22
2023-05-30T02:42:24.551Z,89.31
2023-05-30T02:43:24.436Z,89.12
2023-05-30T02:44:24.432Z,89.22
2023-05-30T02:45:24.450Z,88.84
2023-05-30T02:46:24.417Z,89.50
2023-05-30T02:47:24.407Z,90.08
2023-05-30T02:48:24.394Z,89.69
2023-05-30T02:49:24.386Z,89.50
2023-05-30T02:50:24.371Z,89.31
2023-05-30T02:51:24.377Z,89.50
2023-05-30T02:52:24.354Z,89.22
2023-05-30T02:53:24.383Z,89.50
2023-05-30T02:54:24.370Z,89.31
2023-05-30T02:55:24.528Z,89.40
2023-05-30T02:56:24.308Z,88.93
2023-05-30T02:57:24.316Z,89.12
2023-05-30T02:58:24.343Z,90.45
2023-05-30T02:59:24.296Z,90.26
2023-05-30T03:00:24.268Z,89.22
2023-05-30T03:01:24.355Z,89.12
2023-05-30T03:02:24.365Z,89.89
2023-05-30T03:03:24.271Z,89.69
2023-05-30T03:04:24.244Z,90.26
2023-05-30T03:05:24.252Z,90.17
2023-05-30T03:06:24.282Z,90.45
2023-05-30T03:07:24.257Z,91.03
2023-05-30T03:08:26.481Z,90.45
2023-05-30T03:09:24.182Z,90.74
2023-05-30T03:10:24.228Z,90.17
2023-05-30T03:11:24.406Z,90.17
2023-05-30T03:12:24.167Z,90.08
2023-05-30T03:13:24.155Z,90.84
2023-05-30T03:14:24.166Z,91.13
2023-05-30T03:15:24.149Z,90.84
2023-05-30T03:16:24.173Z,90.36
2023-05-30T03:17:24.171Z,90.84
2023-05-30T03:18:24.116Z,91.13
2023-05-30T03:19:24.102Z,90.74
2023-05-30T03:20:24.093Z,90.74
2023-05-30T03:21:24.091Z,91.60
2023-05-30T03:22:24.111Z,91.79
2023-05-30T03:23:24.082Z,92.13
2023-05-30T03:24:24.044Z,92.13
2023-05-30T03:25:24.039Z,92.22
2023-05-30T03:26:24.031Z,91.55
2023-05-30T03:27:24.023Z,91.94
2023-05-30T03:28:24.000Z,92.22
2023-05-30T03:29:24.009Z,92.32
2023-05-30T03:30:24.006Z,92.41
2023-05-30T03:31:24.007Z,92.50
2023-05-30T03:32:23.999Z,92.89
2023-05-30T03:33:23.971Z,92.89
2023-05-30T03:34:23.989Z,93.08
2023-05-30T03:35:23.952Z,92.79
2023-05-30T03:36:23.950Z,91.84
2023-05-30T03:37:23.943Z,90.50
2023-05-30T03:38:23.905Z,90.70
2023-05-30T03:39:24.099Z,91.94
2023-05-30T03:40:23.899Z,92.41
2023-05-30T03:41:23.883Z,92.79
2023-05-30T03:42:23.875Z,93.17
2023-05-30T03:43:23.892Z,93.65
2023-05-30T03:44:23.884Z,93.84
2023-05-30T03:45:23.871Z,93.60
2023-05-30T03:46:23.991Z,92.93
2023-05-30T03:47:23.856Z,92.55
2023-05-30T03:48:23.855Z,91.13
2023-05-30T03:49:23.838Z,90.74
2023-05-30T03:50:23.820Z,88.26
2023-05-30T03:51:23.787Z,87.12
2023-05-30T03:52:23.784Z,87.16
2023-05-30T03:53:23.775Z,88.02
2023-05-30T03:54:23.792Z,88.12
2023-05-30T03:55:23.785Z,87.07
2023-05-30T03:56:23.770Z,87.93
2023-05-30T03:57:23.752Z,87.26
2023-05-30T03:58:23.751Z,85.83
2023-05-30T03:59:23.763Z,85.73
2023-05-30T04:00:23.726Z,85.06
2023-05-30T04:01:23.729Z,86.21
2023-05-30T04:02:23.887Z,87.45
2023-05-30T04:03:23.746Z,88.59
2023-05-30T04:04:23.713Z,89.54
2023-05-30T04:05:23.706Z,89.54
2023-05-30T04:06:23.674Z,89.50
2023-05-30T04:07:23.671Z,88.45
2023-05-30T04:08:23.670Z,87.97
2023-05-30T04:09:23.648Z,86.73
2023-05-30T04:10:23.656Z,85.87
2023-05-30T04:11:23.602Z,85.21
2023-05-30T04:12:23.634Z,83.58
2023-05-30T04:13:23.617Z,81.14
2023-05-30T04:14:23.584Z,79.90
2023-05-30T04:15:23.551Z,78.94
2023-05-30T04:16:23.582Z,78.09
2023-05-30T04:17:23.586Z,78.51
2023-05-30T04:18:23.598Z,78.31
2023-05-30T04:19:23.532Z,78.22
2023-05-30T04:20:23.566Z,77.45
2023-05-30T04:21:23.551Z,77.08
2023-05-30T04:22:23.539Z,76.25
2023-05-30T04:23:23.513Z,75.96
2023-05-30T04:24:23.715Z,76.25
2023-05-30T04:25:23.522Z,77.01
2023-05-30T04:26:23.496Z,77.11
2023-05-30T04:27:23.489Z,76.35
2023-05-30T04:28:23.479Z,74.91
2023-05-30T04:29:23.478Z,74.28
2023-05-30T04:30:23.464Z,73.33
2023-05-30T04:31:23.608Z,72.85
2023-05-30T04:32:23.426Z,71.70
2023-05-30T04:33:23.444Z,75.78
2023-05-30T04:34:23.427Z,78.55
2023-05-30T04:35:23.424Z,79.98
2023-05-30T04:36:23.404Z,82.56
2023-05-30T04:37:23.427Z,83.67
2023-05-30T04:38:23.400Z,85.58
2023-05-30T04:39:23.368Z,85.67
2023-05-30T04:40:23.360Z,85.38
2023-05-30T04:41:23.453Z,85.86
2023-05-30T04:42:23.346Z,86.24
2023-05-30T04:43:23.376Z,86.53
2023-05-30T04:44:23.342Z,87.29
2023-05-30T04:45:23.343Z,87.10
2023-05-30T04:46:23.434Z,86.43
2023-05-30T04:47:23.415Z,82.84
2023-05-30T04:48:23.300Z,82.28
2023-05-30T04:49:23.347Z,83.80
2023-05-30T04:50:23.299Z,81.41
2023-05-30T04:51:23.259Z,78.36
2023-05-30T04:52:23.274Z,75.30
2023-05-30T04:53:23.337Z,75.30
2023-05-30T04:54:23.265Z,74.34
2023-05-30T04:55:23.262Z,79.41
2023-05-30T04:56:23.276Z,82.18
2023-05-30T04:57:24.603Z,83.38
2023-05-30T04:58:23.212Z,84.23
2023-05-30T04:59:23.226Z,85.38
2023-05-30T05:00:23.228Z,81.37
2023-05-30T05:01:23.260Z,83.95
2023-05-30T05:02:23.204Z,82.52
2023-05-30T05:03:23.223Z,79.27
2023-05-30T05:04:23.160Z,79.56
2023-05-30T05:05:23.216Z,80.51
2023-05-30T05:06:23.225Z,81.56
2023-05-30T05:07:38.040Z,82.81
2023-05-30T05:08:23.172Z,79.27
2023-05-30T05:09:23.181Z,78.70
2023-05-30T05:10:23.126Z,78.45
2023-05-30T05:11:23.132Z,79.12
2023-05-30T05:12:23.140Z,76.82
2023-05-30T05:13:23.140Z,77.11
2023-05-30T05:14:23.095Z,76.82
2023-05-30T05:15:23.136Z,76.86
2023-05-30T05:16:23.126Z,77.34
2023-05-30T05:17:23.130Z,76.48
2023-05-30T05:18:23.098Z,78.58
2023-05-30T05:19:23.084Z,76.00
2023-05-30T05:20:23.081Z,74.19
2023-05-30T05:21:23.070Z,72.85
2023-05-30T05:22:23.064Z,72.66
2023-05-30T05:23:23.274Z,72.56
2023-05-30T05:24:23.028Z,74.38
2023-05-30T05:25:22.994Z,75.30
2023-05-30T05:26:23.850Z,76.73
2023-05-30T05:27:23.010Z,77.11
2023-05-30T05:28:22.969Z,76.73
2023-05-30T05:29:23.016Z,77.30
2023-05-30T05:30:22.996Z,79.02
2023-05-30T05:31:23.020Z,78.36
2023-05-30T05:32:23.050Z,76.82
2023-05-30T05:33:22.946Z,77.01
2023-05-30T05:34:22.919Z,76.25
2023-05-30T05:35:22.942Z,76.54
2023-05-30T05:36:22.927Z,77.21
2023-05-30T05:37:22.937Z,77.97
2023-05-30T05:38:22.947Z,77.97
2023-05-30T05:39:22.918Z,78.55
2023-05-30T05:40:22.873Z,76.73
2023-05-30T05:41:22.875Z,76.64
2023-05-30T05:42:22.895Z,76.92
2023-05-30T05:43:22.894Z,77.06
2023-05-30T05:44:24.595Z,76.77
2023-05-30T05:45:22.901Z,77.06
2023-05-30T05:46:22.946Z,76.06
2023-05-30T05:47:22.905Z,75.20
2023-05-30T05:48:22.869Z,75.68
2023-05-30T05:49:22.840Z,75.87
2023-05-30T05:50:22.823Z,76.16
2023-05-30T05:51:22.828Z,76.82
2023-05-30T05:52:22.791Z,76.54
2023-05-30T05:53:22.826Z,75.20
2023-05-30T05:54:22.887Z,76.06
2023-05-30T05:55:22.776Z,77.30
2023-05-30T05:56:22.791Z,76.77
2023-05-30T05:57:22.791Z,76.00
2023-05-30T05:58:22.739Z,76.00
2023-05-30T05:59:22.750Z,75.91
2023-05-30T06:00:22.767Z,74.76
2023-05-30T06:01:22.727Z,74.61
2023-05-30T06:02:22.758Z,74.51
2023-05-30T06:03:22.788Z,74.99
2023-05-30T06:04:22.832Z,74.32
2023-05-30T06:05:22.714Z,75.31
2023-05-30T06:06:22.716Z,73.11
2023-05-30T06:07:22.712Z,73.02
2023-05-30T06:08:22.779Z,74.84
2023-05-30T06:09:22.694Z,73.05
2023-05-30T06:10:22.680Z,72.09
2023-05-30T06:11:22.673Z,71.11
2023-05-30T06:12:22.666Z,71.58
2023-05-30T06:13:22.654Z,73.30
2023-05-30T06:14:22.674Z,72.73
2023-05-30T06:15:22.616Z,73.79
2023-05-30T06:16:22.650Z,72.92
2023-05-30T06:17:22.702Z,71.39
2023-05-30T06:18:22.816Z,72.44
2023-05-30T06:19:22.591Z,73.59
2023-05-30T06:20:22.596Z,73.59
2023-05-30T06:21:22.592Z,74.22
2023-05-30T06:22:22.602Z,73.65
2023-05-30T06:23:22.588Z,75.76
2023-05-30T06:24:22.567Z,75.22
2023-05-30T06:25:22.751Z,75.70
2023-05-30T06:26:22.616Z,75.02
2023-05-30T06:27:22.548Z,75.79
2023-05-30T06:28:22.536Z,76.18
2023-05-30T06:29:22.577Z,75.89
2023-05-30T06:30:22.513Z,75.02
2023-05-30T06:31:22.565Z,74.45
2023-05-30T06:32:22.576Z,74.84
2023-05-30T06:33:22.578Z,74.04
2023-05-30T06:34:22.493Z,76.33
2023-05-30T06:35:22.485Z,75.89
2023-05-30T06:36:22.485Z,74.93
2023-05-30T06:37:22.472Z,74.93
2023-05-30T06:38:22.504Z,74.99
2023-05-30T06:39:22.464Z,75.66
2023-05-30T06:40:22.433Z,75.27
2023-05-30T06:41:22.466Z,76.08
2023-05-30T06:42:22.504Z,76.75
2023-05-30T06:43:22.412Z,76.69
2023-05-30T06:44:22.427Z,77.88
2023-05-30T06:45:22.398Z,74.58
2023-05-30T06:46:22.433Z,74.58
2023-05-30T06:47:22.387Z,74.49
2023-05-30T06:48:22.381Z,74.68
2023-05-30T06:49:22.395Z,74.87
2023-05-30T06:50:22.363Z,74.58
2023-05-30T06:51:22.379Z,74.77
2023-05-30T06:52:22.352Z,74.49
2023-05-30T06:53:22.388Z,74.82
2023-05-30T06:54:22.347Z,75.10
2023-05-30T06:55:22.355Z,74.91
2023-05-30T06:56:22.333Z,75.01
2023-05-30T06:57:22.336Z,73.63
2023-05-30T06:58:22.466Z,73.72
2023-05-30T06:59:22.388Z,73.63
2023-05-30T07:00:22.299Z,75.93
2023-05-30T07:01:22.345Z,75.10
2023-05-30T07:02:22.497Z,73.66
2023-05-30T07:03:22.302Z,76.15
2023-05-30T07:04:22.294Z,74.57
2023-05-30T07:05:22.270Z,73.41
2023-05-30T07:06:22.258Z,72.84
2023-05-30T07:07:22.271Z,72.13
2023-05-30T07:08:22.226Z,73.09
2023-05-30T07:09:22.289Z,74.52
2023-05-30T07:10:22.227Z,74.52
2023-05-30T07:11:22.462Z,73.28
2023-05-30T07:12:23.477Z,74.33
2023-05-30T07:13:22.226Z,75.14
2023-05-30T07:14:22.398Z,73.19
2023-05-30T07:15:22.200Z,72.32
2023-05-30T07:16:22.216Z,72.36
2023-05-30T07:17:22.546Z,74.47
2023-05-30T07:18:22.181Z,73.03
2023-05-30T07:19:22.426Z,73.22
2023-05-30T07:20:22.270Z,71.88
2023-05-30T07:21:22.174Z,71.63
2023-05-30T07:22:22.168Z,72.11
2023-05-30T07:23:22.181Z,72.30
2023-05-30T07:24:22.126Z,72.68
2023-05-30T07:25:22.120Z,73.77
2023-05-30T07:26:22.110Z,70.23
2023-05-30T07:27:22.119Z,69.90
2023-05-30T07:28:22.132Z,71.92
2023-05-30T07:29:22.111Z,70.96
2023-05-30T07:30:22.111Z,71.53
2023-05-30T07:31:22.140Z,72.20
2023-05-30T07:32:22.089Z,71.34
2023-05-30T07:33:22.099Z,72.88
2023-05-30T07:34:22.105Z,70.54
2023-05-30T07:35:22.282Z,72.59
2023-05-30T07:36:22.282Z,72.68
2023-05-30T07:37:22.076Z,72.88
2023-05-30T07:38:22.058Z,72.20
2023-05-30T07:39:22.041Z,72.49
2023-05-30T07:40:22.055Z,72.33
2023-05-30T07:41:22.034Z,72.05
2023-05-30T07:42:22.010Z,70.38
2023-05-30T07:43:22.025Z,72.81
2023-05-30T07:44:22.059Z,72.24
2023-05-30T07:45:22.004Z,71.37
2023-05-30T07:46:22.097Z,71.37
2023-05-30T07:47:22.055Z,69.46
2023-05-30T07:48:21.998Z,69.52
2023-05-30T07:49:21.976Z,71.53
2023-05-30T07:50:22.023Z,70.38
2023-05-30T07:51:22.079Z,70.57
2023-05-30T07:52:23.387Z,72.43
2023-05-30T07:53:21.953Z,71.76
2023-05-30T07:54:21.972Z,71.66
2023-05-30T07:55:21.959Z,73.04
2023-05-30T07:56:21.955Z,70.07
2023-05-30T07:57:21.946Z,69.74
2023-05-30T07:58:21.935Z,69.65
2023-05-30T07:59:21.921Z,70.51
2023-05-30T08:00:21.968Z,70.19
2023-05-30T08:01:21.920Z,71.76
2023-05-30T08:02:21.935Z,71.95
2023-05-30T08:03:22.063Z,72.37
2023-05-30T08:04:21.982Z,69.97
2023-05-30T08:05:21.882Z,70.20
2023-05-30T08:06:21.922Z,68.85
2023-05-30T08:07:21.874Z,67.80
2023-05-30T08:08:21.872Z,68.66
2023-05-30T08:09:21.943Z,67.83
2023-05-30T08:10:21.920Z,67.77
2023-05-30T08:11:21.872Z,67.48
2023-05-30T08:12:21.978Z,66.65
2023-05-30T08:13:21.854Z,63.83
2023-05-30T08:14:21.841Z,64.56
2023-05-30T08:15:21.830Z,65.11
2023-05-30T08:16:21.885Z,66.20
2023-05-30T08:17:21.887Z,66.58
2023-05-30T08:18:21.820Z,66.10
2023-05-30T08:19:21.802Z,66.58
2023-05-30T08:20:21.920Z,67.38
2023-05-30T08:21:21.819Z,65.23
2023-05-30T08:22:21.801Z,66.68
2023-05-30T08:23:21.793Z,65.53
2023-05-30T08:24:21.877Z,66.81
2023-05-30T08:25:21.797Z,65.56
2023-05-30T08:26:21.772Z,63.32
2023-05-30T08:27:21.871Z,65.33
2023-05-30T08:28:21.779Z,68.44
2023-05-30T08:29:21.768Z,66.71
2023-05-30T08:30:21.810Z,66.42
2023-05-30T08:31:21.788Z,66.10
2023-05-30T08:32:21.793Z,67.61
2023-05-30T08:33:21.767Z,68.08
2023-05-30T08:34:21.748Z,66.55
2023-05-30T08:35:21.717Z,69.75
2023-05-30T08:36:21.725Z,67.48
2023-05-30T08:37:21.756Z,67.29
2023-05-30T08:38:21.729Z,66.87
2023-05-30T08:39:21.700Z,65.14
2023-05-30T08:40:21.720Z,65.91
2023-05-30T08:41:21.703Z,67.07
2023-05-30T08:42:21.725Z,67.74
2023-05-30T08:43:21.681Z,65.88
2023-05-30T08:44:21.720Z,67.93
2023-05-30T08:45:21.706Z,67.45
2023-05-30T08:46:21.763Z,68.31
2023-05-30T08:47:23.989Z,66.39
2023-05-30T08:48:21.672Z,65.53
2023-05-30T08:49:21.821Z,65.20
2023-05-30T08:50:21.674Z,67.32
2023-05-30T08:51:21.650Z,67.54
2023-05-30T08:52:21.648Z,65.33
2023-05-30T08:53:21.650Z,66.61
2023-05-30T08:54:21.688Z,65.08
2023-05-30T08:55:21.636Z,66.52
2023-05-30T08:56:21.657Z,63.22
2023-05-30T08:57:21.616Z,63.02
2023-05-30T08:58:21.662Z,63.02
2023-05-30T08:59:21.639Z,66.14
2023-05-30T09:00:21.642Z,62.16
2023-05-30T09:01:21.653Z,63.32
2023-05-30T09:02:21.643Z,65.23
2023-05-30T09:03:21.619Z,65.33
2023-05-30T09:04:21.787Z,65.33
2023-05-30T09:05:21.590Z,63.99
2023-05-30T09:06:21.581Z,64.95
2023-05-30T09:07:21.590Z,66.14
2023-05-30T09:08:21.571Z,63.99
2023-05-30T09:09:21.550Z,64.15
2023-05-30T09:10:21.652Z,66.30
2023-05-30T09:11:21.532Z,64.98
2023-05-30T09:12:21.529Z,62.00
2023-05-30T09:13:21.543Z,61.11
2023-05-30T09:14:21.532Z,61.97
2023-05-30T09:15:21.534Z,64.89
2023-05-30T09:16:21.539Z,63.73
2023-05-30T09:17:21.527Z,63.76
2023-05-30T09:18:21.540Z,63.41
2023-05-30T09:19:21.515Z,60.52
2023-05-30T09:20:21.671Z,60.62
2023-05-30T09:21:21.485Z,61.61
2023-05-30T09:22:21.508Z,60.75
2023-05-30T09:23:21.493Z,60.94
2023-05-30T09:24:21.474Z,58.63
2023-05-30T09:25:21.524Z,57.28
2023-05-30T09:26:21.529Z,57.18
2023-05-30T09:27:21.467Z,57.15
2023-05-30T09:28:21.466Z,59.56
2023-05-30T09:29:21.472Z,59.44
2023-05-30T09:30:21.452Z,59.92
2023-05-30T09:31:21.451Z,60.49
2023-05-30T09:32:21.472Z,60.75
2023-05-30T09:33:21.443Z,60.78
2023-05-30T09:34:21.413Z,59.63
2023-05-30T09:35:21.404Z,59.92
2023-05-30T09:36:21.624Z,61.46
2023-05-30T09:37:21.419Z,62.54
2023-05-30T09:38:21.416Z,61.19
2023-05-30T09:39:21.410Z,60.72
2023-05-30T09:40:21.392Z,60.24
2023-05-30T09:41:21.441Z,59.82
2023-05-30T09:42:21.395Z,60.37
2023-05-30T09:43:21.382Z,60.37
2023-05-30T09:44:21.395Z,62.32
2023-05-30T09:45:21.612Z,60.78
2023-05-30T09:46:21.446Z,61.46
2023-05-30T09:47:21.355Z,61.84
2023-05-30T09:48:21.371Z,62.23
2023-05-30T09:49:21.338Z,60.97
2023-05-30T09:50:21.357Z,60.78
2023-05-30T09:51:21.340Z,59.79
2023-05-30T09:52:21.340Z,59.41
2023-05-30T09:53:21.355Z,59.69
2023-05-30T09:54:21.344Z,59.41
2023-05-30T09:55:21.363Z,60.56
2023-05-30T09:56:21.305Z,59.63
2023-05-30T09:57:23.981Z,59.63
2023-05-30T09:58:21.324Z,57.22
2023-05-30T09:59:21.482Z,57.70
2023-05-30T10:00:21.312Z,57.51
2023-05-30T10:01:21.309Z,56.93
2023-05-30T10:02:21.438Z,58.18
2023-05-30T10:03:21.344Z,56.52
2023-05-30T10:04:21.275Z,57.29
2023-05-30T10:05:21.261Z,57.87
2023-05-30T10:06:21.256Z,58.32
2023-05-30T10:07:21.256Z,59.41
2023-05-30T10:08:21.247Z,58.45
2023-05-30T10:09:21.260Z,56.21
2023-05-30T10:10:21.227Z,56.43
2023-05-30T10:11:21.250Z,58.15
2023-05-30T10:12:21.244Z,57.10
2023-05-30T10:13:21.252Z,56.71
2023-05-30T10:14:21.230Z,57.48
2023-05-30T10:15:21.226Z,57.60
2023-05-30T10:16:21.303Z,60.01
2023-05-30T10:17:21.235Z,57.99
2023-05-30T10:18:21.261Z,58.79
2023-05-30T10:19:21.202Z,56.65
2023-05-30T10:20:21.211Z,56.07
2023-05-30T10:21:21.183Z,57.73
2023-05-30T10:22:21.187Z,55.52
2023-05-30T10:23:21.176Z,55.23
2023-05-30T10:24:21.196Z,52.34
2023-05-30T10:25:21.177Z,54.46
2023-05-30T10:26:21.200Z,55.13
2023-05-30T10:27:21.165Z,54.43
2023-05-30T10:28:21.155Z,55.43
2023-05-30T10:29:21.220Z,53.69
2023-05-30T10:30:21.143Z,52.89
2023-05-30T10:31:21.246Z,52.92
2023-05-30T10:32:21.153Z,54.75
2023-05-30T10:33:30.022Z,52.25
2023-05-30T10:34:21.118Z,54.27
2023-05-30T10:35:21.122Z,55.07
2023-05-30T10:36:21.112Z,55.09
2023-05-30T10:37:21.111Z,52.81
2023-05-30T10:38:21.098Z,46.83
2023-05-30T10:39:21.112Z,45.65
2023-05-30T10:40:21.107Z,47.58
2023-05-30T10:41:21.089Z,48.33
2023-05-30T10:42:21.086Z,48.23
2023-05-30T10:43:21.087Z,47.56
2023-05-30T10:44:21.098Z,46.31
2023-05-30T10:45:21.104Z,47.17
2023-05-30T10:46:21.092Z,48.61
2023-05-30T10:47:21.118Z,50.27
2023-05-30T10:48:21.053Z,49.79
2023-05-30T10:49:21.041Z,52.23
2023-05-30T10:50:21.082Z,51.84
2023-05-30T10:51:21.031Z,51.68
2023-05-30T10:52:21.056Z,49.91
2023-05-30T10:53:21.036Z,52.33
2023-05-30T10:54:21.115Z,50.78
2023-05-30T10:55:21.047Z,49.24
2023-05-30T10:56:21.245Z,45.36
2023-05-30T10:57:21.022Z,48.35
2023-05-30T10:58:21.012Z,52.56
2023-05-30T10:59:21.075Z,52.56
2023-05-30T11:00:21.020Z,53.81
2023-05-30T11:01:21.088Z,54.61
2023-05-30T11:02:21.224Z,53.81
2023-05-30T11:03:21.153Z,53.72
2023-05-30T11:04:21.138Z,55.55
2023-05-30T11:05:20.965Z,53.81
2023-05-30T11:06:20.985Z,54.78
2023-05-30T11:07:20.972Z,53.81
2023-05-30T11:08:20.973Z,53.81
2023-05-30T11:09:20.960Z,53.94
2023-05-30T11:10:20.959Z,51.82
2023-05-30T11:11:20.948Z,52.49
2023-05-30T11:12:20.983Z,53.40
2023-05-30T11:13:20.971Z,55.71
2023-05-30T11:14:20.973Z,54.27
2023-05-30T11:15:20.936Z,55.71
2023-05-30T11:16:21.031Z,55.52
2023-05-30T11:17:20.943Z,56.48
2023-05-30T11:18:20.937Z,58.02
2023-05-30T11:19:20.950Z,58.82
2023-05-30T11:20:20.956Z,58.08
2023-05-30T11:21:20.912Z,57.12
2023-05-30T11:22:20.910Z,55.29
2023-05-30T11:23:20.916Z,55.87
2023-05-30T11:24:20.887Z,55.74
2023-05-30T11:25:20.909Z,56.82
2023-05-30T11:26:20.904Z,56.80
2023-05-30T11:27:20.877Z,58.85
2023-05-30T11:28:20.891Z,57.60
2023-05-30T11:29:20.844Z,58.20
2023-05-30T11:30:20.870Z,57.05
2023-05-30T11:31:21.749Z,56.69
2023-05-30T11:32:21.073Z,57.37
2023-05-30T11:33:21.047Z,56.69
2023-05-30T11:34:20.848Z,56.98
2023-05-30T11:35:20.830Z,54.28
2023-05-30T11:36:21.269Z,54.47
2023-05-30T11:37:20.889Z,55.41
2023-05-30T11:38:20.894Z,55.41
2023-05-30T11:39:20.807Z,56.18
2023-05-30T11:40:20.814Z,56.18
2023-05-30T11:41:20.806Z,57.14
2023-05-30T11:42:20.787Z,56.44
2023-05-30T11:43:20.804Z,57.21
2023-05-30T11:44:20.786Z,59.45
2023-05-30T11:45:20.768Z,58.95
2023-05-30T11:46:20.827Z,58.11
2023-05-30T11:47:43.753Z,57.31
2023-05-30T11:48:20.835Z,57.50
2023-05-30T11:49:20.813Z,61.35
2023-05-30T11:50:20.764Z,57.21
2023-05-30T11:51:20.752Z,56.54
2023-05-30T11:52:20.754Z,57.50
2023-05-30T11:53:20.855Z,57.79
2023-05-30T11:54:20.756Z,56.73
2023-05-30T11:55:20.732Z,57.50
2023-05-30T11:56:20.791Z,57.12
2023-05-30T11:57:20.714Z,57.02
2023-05-30T11:58:20.773Z,56.82
2023-05-30T11:59:20.750Z,56.82
2023-05-30T12:00:20.753Z,57.12
2023-05-30T12:01:20.693Z,57.40
2023-05-30T12:02:20.736Z,57.09
2023-05-30T12:03:20.782Z,58.44
2023-05-30T12:04:20.762Z,57.09
2023-05-30T12:05:20.869Z,58.85
2023-05-30T12:06:20.747Z,56.63
2023-05-30T12:07:20.666Z,57.24
2023-05-30T12:08:20.731Z,57.34
2023-05-30T12:09:20.680Z,57.14
2023-05-30T12:10:20.675Z,55.63
2023-05-30T12:11:20.654Z,55.79
2023-05-30T12:12:20.638Z,56.01
2023-05-30T12:13:20.718Z,55.41
2023-05-30T12:14:20.647Z,55.45
2023-05-30T12:15:20.636Z,56.51
2023-05-30T12:16:20.672Z,57.50
2023-05-30T12:17:20.638Z,54.71
2023-05-30T12:18:20.775Z,55.57
2023-05-30T12:19:20.637Z,55.87
2023-05-30T12:20:20.689Z,56.05
2023-05-30T12:21:20.646Z,55.87
2023-05-30T12:22:20.647Z,57.31
2023-05-30T12:23:20.617Z,57.43
2023-05-30T12:24:20.600Z,57.14
2023-05-30T12:25:20.650Z,56.79
2023-05-30T12:26:20.666Z,55.12
2023-05-30T12:27:20.646Z,55.22
2023-05-30T12:28:20.616Z,53.65
2023-05-30T12:29:20.612Z,55.70
2023-05-30T12:30:20.592Z,54.61
2023-05-30T12:31:20.642Z,55.31
2023-05-30T12:32:20.598Z,54.74
2023-05-30T12:33:20.601Z,55.60
2023-05-30T12:34:20.596Z,54.64
2023-05-30T12:35:20.573Z,54.42
2023-05-30T12:36:29.291Z,54.49
2023-05-30T12:37:20.556Z,55.67
2023-05-30T12:38:20.568Z,55.57
2023-05-30T12:39:20.556Z,55.48
2023-05-30T12:40:20.558Z,56.60
2023-05-30T12:41:20.551Z,57.21
2023-05-30T12:42:20.553Z,56.44
2023-05-30T12:43:20.894Z,57.12
2023-05-30T12:44:20.509Z,57.47
2023-05-30T12:45:20.507Z,56.80
2023-05-30T12:46:20.561Z,57.18
2023-05-30T12:47:20.530Z,57.54
2023-05-30T12:48:20.522Z,59.69
2023-05-30T12:49:20.546Z,58.82
2023-05-30T12:50:20.482Z,59.23
2023-05-30T12:51:20.534Z,57.40
2023-05-30T12:52:20.477Z,58.49